sensor_id;sensor_type;location;lat;lon;timestamp;temperature;humidity
22430;DHT22;11382;48.086;11.632;2023-11-18T00:00:10;4.70;99.90
22430;DHT22;11382;48.086;11.632;2023-11-18T00:02:40;4.80;99.90
22430;DHT22;11382;48.086;11.632;2023-11-18T00:05:11;4.80;99.90
22430;DHT22;11382;48.086;11.632;2023-11-18T00:07:40;4.80;99.90
22430;DHT22;11382;48.086;11.632;2023-11-18T00:10:09;4.70;99.90
22430;DHT22;11382;48.086;11.632;2023-11-18T00:12:37;4.70;99.90
22430;DHT22;11382;48.086;11.632;2023-11-18T00:15:09;4.80;99.90
22430;DHT22;11382;48.086;11.632;2023-11-18T00:17:37;4.70;99.90
22430;DHT22;11382;48.086;11.632;2023-11-18T00:20:06;4.70;99.90
22430;DHT22;11382;48.086;11.632;2023-11-18T00:22:37;4.70;99.90
22430;DHT22;11382;48.086;11.632;2023-11-18T00:25:08;4.70;99.90
22430;DHT22;11382;48.086;11.632;2023-11-18T00:27:37;4.70;99.90
22430;DHT22;11382;48.086;11.632;2023-11-18T00:30:06;4.70;99.90
22430;DHT22;11382;48.086;11.632;2023-11-18T00:32:35;4.70;99.90
22430;DHT22;11382;48.086;11.632;2023-11-18T00:35:04;4.80;99.90
22430;DHT22;11382;48.086;11.632;2023-11-18T00:37:32;4.70;99.90
22430;DHT22;11382;48.086;11.632;2023-11-18T00:40:00;4.60;99.90
22430;DHT22;11382;48.086;11.632;2023-11-18T00:42:31;4.60;99.90
22430;DHT22;11382;48.086;11.632;2023-11-18T00:44:59;4.60;99.90
22430;DHT22;11382;48.086;11.632;2023-11-18T00:47:27;4.60;99.90
22430;DHT22;11382;48.086;11.632;2023-11-18T00:49:55;4.70;99.90
22430;DHT22;11382;48.086;11.632;2023-11-18T00:52:24;4.60;99.90
22430;DHT22;11382;48.086;11.632;2023-11-18T00:54:52;4.60;99.90
22430;DHT22;11382;48.086;11.632;2023-11-18T00:57:20;4.70;99.90
22430;DHT22;11382;48.086;11.632;2023-11-18T00:59:49;4.70;99.90
22430;DHT22;11382;48.086;11.632;2023-11-18T01:02:17;4.70;99.90
22430;DHT22;11382;48.086;11.632;2023-11-18T01:04:46;4.70;99.90
22430;DHT22;11382;48.086;11.632;2023-11-18T01:07:14;4.70;99.90
22430;DHT22;11382;48.086;11.632;2023-11-18T01:09:42;4.60;99.90
22430;DHT22;11382;48.086;11.632;2023-11-18T01:12:10;4.60;99.90
22430;DHT22;11382;48.086;11.632;2023-11-18T01:14:39;4.70;99.90
22430;DHT22;11382;48.086;11.632;2023-11-18T01:17:10;4.70;99.90
22430;DHT22;11382;48.086;11.632;2023-11-18T01:19:38;4.70;99.90
22430;DHT22;11382;48.086;11.632;2023-11-18T01:22:06;4.70;99.90
22430;DHT22;11382;48.086;11.632;2023-11-18T01:24:35;4.70;99.90
22430;DHT22;11382;48.086;11.632;2023-11-18T01:27:04;4.80;99.90
22430;DHT22;11382;48.086;11.632;2023-11-18T01:29:34;4.70;99.90
22430;DHT22;11382;48.086;11.632;2023-11-18T01:32:02;4.70;99.90
22430;DHT22;11382;48.086;11.632;2023-11-18T01:34:37;4.70;99.90
22430;DHT22;11382;48.086;11.632;2023-11-18T01:37:07;4.80;99.90
22430;DHT22;11382;48.086;11.632;2023-11-18T01:39:36;4.80;99.90
22430;DHT22;11382;48.086;11.632;2023-11-18T01:42:04;4.80;99.90
22430;DHT22;11382;48.086;11.632;2023-11-18T01:44:32;4.80;99.90
22430;DHT22;11382;48.086;11.632;2023-11-18T01:47:02;4.70;99.90
22430;DHT22;11382;48.086;11.632;2023-11-18T01:49:36;4.70;99.90
22430;DHT22;11382;48.086;11.632;2023-11-18T01:52:07;4.70;99.90
22430;DHT22;11382;48.086;11.632;2023-11-18T01:54:37;4.70;99.90
22430;DHT22;11382;48.086;11.632;2023-11-18T01:57:06;4.70;99.90
22430;DHT22;11382;48.086;11.632;2023-11-18T01:59:36;4.70;99.90
22430;DHT22;11382;48.086;11.632;2023-11-18T02:02:05;4.70;99.90
22430;DHT22;11382;48.086;11.632;2023-11-18T02:04:33;4.70;99.90
22430;DHT22;11382;48.086;11.632;2023-11-18T02:07:02;4.80;99.90
22430;DHT22;11382;48.086;11.632;2023-11-18T02:09:36;4.70;99.90
22430;DHT22;11382;48.086;11.632;2023-11-18T02:12:11;4.80;99.90
22430;DHT22;11382;48.086;11.632;2023-11-18T02:14:45;4.80;99.90
22430;DHT22;11382;48.086;11.632;2023-11-18T02:17:14;4.80;99.90
22430;DHT22;11382;48.086;11.632;2023-11-18T02:19:45;4.80;99.90
22430;DHT22;11382;48.086;11.632;2023-11-18T02:22:15;4.80;99.90
22430;DHT22;11382;48.086;11.632;2023-11-18T02:24:43;4.80;99.90
22430;DHT22;11382;48.086;11.632;2023-11-18T02:27:14;4.80;99.90
22430;DHT22;11382;48.086;11.632;2023-11-18T02:29:44;4.90;99.90
22430;DHT22;11382;48.086;11.632;2023-11-18T02:32:20;4.90;99.90
22430;DHT22;11382;48.086;11.632;2023-11-18T02:34:56;4.80;99.90
22430;DHT22;11382;48.086;11.632;2023-11-18T02:37:25;4.80;99.90
22430;DHT22;11382;48.086;11.632;2023-11-18T02:40:01;4.70;99.90
22430;DHT22;11382;48.086;11.632;2023-11-18T02:42:33;4.80;99.90
22430;DHT22;11382;48.086;11.632;2023-11-18T02:45:02;4.80;99.90
22430;DHT22;11382;48.086;11.632;2023-11-18T02:47:30;4.80;99.90
22430;DHT22;11382;48.086;11.632;2023-11-18T02:49:58;4.80;99.90
22430;DHT22;11382;48.086;11.632;2023-11-18T02:52:32;4.90;99.90
22430;DHT22;11382;48.086;11.632;2023-11-18T02:55:01;4.90;99.90
22430;DHT22;11382;48.086;11.632;2023-11-18T02:57:29;4.90;99.90
22430;DHT22;11382;48.086;11.632;2023-11-18T02:59:59;4.90;99.90
22430;DHT22;11382;48.086;11.632;2023-11-18T03:02:27;4.90;99.90
22430;DHT22;11382;48.086;11.632;2023-11-18T03:04:58;4.90;99.90
22430;DHT22;11382;48.086;11.632;2023-11-18T03:07:26;4.90;99.90
22430;DHT22;11382;48.086;11.632;2023-11-18T03:09:54;4.80;99.90
22430;DHT22;11382;48.086;11.632;2023-11-18T03:12:24;4.90;99.90
22430;DHT22;11382;48.086;11.632;2023-11-18T03:14:55;4.80;99.90
22430;DHT22;11382;48.086;11.632;2023-11-18T03:17:25;4.90;99.90
22430;DHT22;11382;48.086;11.632;2023-11-18T03:19:54;4.90;99.90
22430;DHT22;11382;48.086;11.632;2023-11-18T03:22:22;4.90;99.90
22430;DHT22;11382;48.086;11.632;2023-11-18T03:24:51;5.00;99.90
22430;DHT22;11382;48.086;11.632;2023-11-18T03:27:19;4.90;99.90
22430;DHT22;11382;48.086;11.632;2023-11-18T03:29:47;4.90;99.90
22430;DHT22;11382;48.086;11.632;2023-11-18T03:32:19;4.90;99.90
22430;DHT22;11382;48.086;11.632;2023-11-18T03:34:48;4.80;99.90
22430;DHT22;11382;48.086;11.632;2023-11-18T03:37:16;4.80;99.90
22430;DHT22;11382;48.086;11.632;2023-11-18T03:39:45;4.80;99.90
22430;DHT22;11382;48.086;11.632;2023-11-18T03:42:13;4.80;99.90
22430;DHT22;11382;48.086;11.632;2023-11-18T03:44:43;4.90;99.90
22430;DHT22;11382;48.086;11.632;2023-11-18T03:47:14;4.80;99.90
22430;DHT22;11382;48.086;11.632;2023-11-18T03:49:42;4.90;99.90
22430;DHT22;11382;48.086;11.632;2023-11-18T03:52:11;4.80;99.90
22430;DHT22;11382;48.086;11.632;2023-11-18T03:54:39;4.80;99.90
22430;DHT22;11382;48.086;11.632;2023-11-18T03:57:08;4.80;99.90
22430;DHT22;11382;48.086;11.632;2023-11-18T03:59:36;4.70;99.90
22430;DHT22;11382;48.086;11.632;2023-11-18T04:02:06;4.70;99.90
22430;DHT22;11382;48.086;11.632;2023-11-18T04:04:34;4.80;99.90
22430;DHT22;11382;48.086;11.632;2023-11-18T04:07:02;4.70;99.90
22430;DHT22;11382;48.086;11.632;2023-11-18T04:09:32;4.70;99.90
22430;DHT22;11382;48.086;11.632;2023-11-18T04:12:00;4.70;99.90
22430;DHT22;11382;48.086;11.632;2023-11-18T04:14:28;4.70;99.90
22430;DHT22;11382;48.086;11.632;2023-11-18T04:16:56;4.70;99.90
22430;DHT22;11382;48.086;11.632;2023-11-18T04:19:24;4.80;99.90
22430;DHT22;11382;48.086;11.632;2023-11-18T04:21:52;4.80;99.90
22430;DHT22;11382;48.086;11.632;2023-11-18T04:24:20;4.70;99.90
22430;DHT22;11382;48.086;11.632;2023-11-18T04:26:50;4.70;99.90
22430;DHT22;11382;48.086;11.632;2023-11-18T04:29:17;4.80;99.90
22430;DHT22;11382;48.086;11.632;2023-11-18T04:31:45;4.80;99.90
22430;DHT22;11382;48.086;11.632;2023-11-18T04:34:13;4.80;99.90
22430;DHT22;11382;48.086;11.632;2023-11-18T04:36:43;4.90;99.90
22430;DHT22;11382;48.086;11.632;2023-11-18T04:39:11;4.80;99.90
22430;DHT22;11382;48.086;11.632;2023-11-18T04:41:39;4.80;99.90
22430;DHT22;11382;48.086;11.632;2023-11-18T04:44:09;4.90;99.90
22430;DHT22;11382;48.086;11.632;2023-11-18T04:46:37;4.80;99.90
22430;DHT22;11382;48.086;11.632;2023-11-18T04:49:05;4.90;99.90
22430;DHT22;11382;48.086;11.632;2023-11-18T04:51:33;4.80;99.90
22430;DHT22;11382;48.086;11.632;2023-11-18T04:54:01;4.90;99.90
22430;DHT22;11382;48.086;11.632;2023-11-18T04:56:30;5.00;99.90
22430;DHT22;11382;48.086;11.632;2023-11-18T04:58:58;5.10;99.90
22430;DHT22;11382;48.086;11.632;2023-11-18T05:01:27;5.10;99.90
22430;DHT22;11382;48.086;11.632;2023-11-18T05:03:55;5.10;99.90
22430;DHT22;11382;48.086;11.632;2023-11-18T05:06:23;5.10;99.90
22430;DHT22;11382;48.086;11.632;2023-11-18T05:08:52;5.00;99.90
22430;DHT22;11382;48.086;11.632;2023-11-18T05:11:21;5.00;99.90
22430;DHT22;11382;48.086;11.632;2023-11-18T05:13:49;5.10;99.90
22430;DHT22;11382;48.086;11.632;2023-11-18T05:16:17;5.10;99.90
22430;DHT22;11382;48.086;11.632;2023-11-18T05:18:46;5.10;99.90
22430;DHT22;11382;48.086;11.632;2023-11-18T05:21:15;5.10;99.90
22430;DHT22;11382;48.086;11.632;2023-11-18T05:23:42;5.10;99.90
22430;DHT22;11382;48.086;11.632;2023-11-18T05:26:10;5.10;99.90
22430;DHT22;11382;48.086;11.632;2023-11-18T05:28:38;5.00;99.90
22430;DHT22;11382;48.086;11.632;2023-11-18T05:31:06;5.10;99.90
22430;DHT22;11382;48.086;11.632;2023-11-18T05:33:35;5.00;99.90
22430;DHT22;11382;48.086;11.632;2023-11-18T05:36:06;5.00;99.90
22430;DHT22;11382;48.086;11.632;2023-11-18T05:38:34;4.90;99.90
22430;DHT22;11382;48.086;11.632;2023-11-18T05:41:03;5.00;99.90
22430;DHT22;11382;48.086;11.632;2023-11-18T05:43:33;5.00;99.90
22430;DHT22;11382;48.086;11.632;2023-11-18T05:46:07;5.00;99.90
22430;DHT22;11382;48.086;11.632;2023-11-18T05:48:47;4.90;99.90
22430;DHT22;11382;48.086;11.632;2023-11-18T05:51:20;4.90;99.90
22430;DHT22;11382;48.086;11.632;2023-11-18T05:53:50;5.00;99.90
22430;DHT22;11382;48.086;11.632;2023-11-18T05:56:19;5.00;99.90
22430;DHT22;11382;48.086;11.632;2023-11-18T05:58:50;5.00;99.90
22430;DHT22;11382;48.086;11.632;2023-11-18T06:01:20;5.00;99.90
22430;DHT22;11382;48.086;11.632;2023-11-18T06:03:48;5.10;99.90
22430;DHT22;11382;48.086;11.632;2023-11-18T06:06:17;5.00;99.90
22430;DHT22;11382;48.086;11.632;2023-11-18T06:08:51;5.00;99.90
22430;DHT22;11382;48.086;11.632;2023-11-18T06:11:20;5.00;99.90
22430;DHT22;11382;48.086;11.632;2023-11-18T06:13:51;5.00;99.90
22430;DHT22;11382;48.086;11.632;2023-11-18T06:16:20;5.00;99.90
22430;DHT22;11382;48.086;11.632;2023-11-18T06:18:50;5.10;99.90
22430;DHT22;11382;48.086;11.632;2023-11-18T06:21:20;5.10;99.90
22430;DHT22;11382;48.086;11.632;2023-11-18T06:23:52;5.10;99.90
22430;DHT22;11382;48.086;11.632;2023-11-18T06:26:22;5.10;99.90
22430;DHT22;11382;48.086;11.632;2023-11-18T06:28:51;5.10;99.90
22430;DHT22;11382;48.086;11.632;2023-11-18T06:31:19;5.10;99.90
22430;DHT22;11382;48.086;11.632;2023-11-18T06:33:47;5.10;99.90
22430;DHT22;11382;48.086;11.632;2023-11-18T06:36:19;5.10;99.90
22430;DHT22;11382;48.086;11.632;2023-11-18T06:38:48;5.10;99.90
22430;DHT22;11382;48.086;11.632;2023-11-18T06:41:20;5.10;99.90
22430;DHT22;11382;48.086;11.632;2023-11-18T06:43:50;5.10;99.90
22430;DHT22;11382;48.086;11.632;2023-11-18T06:46:28;5.00;99.90
22430;DHT22;11382;48.086;11.632;2023-11-18T06:48:59;5.00;99.90
22430;DHT22;11382;48.086;11.632;2023-11-18T06:51:31;5.10;99.90
22430;DHT22;11382;48.086;11.632;2023-11-18T06:54:03;5.10;99.90
22430;DHT22;11382;48.086;11.632;2023-11-18T06:56:37;5.30;99.90
22430;DHT22;11382;48.086;11.632;2023-11-18T06:59:06;5.30;99.90
22430;DHT22;11382;48.086;11.632;2023-11-18T07:01:34;5.30;99.90
22430;DHT22;11382;48.086;11.632;2023-11-18T07:04:03;5.30;99.90
22430;DHT22;11382;48.086;11.632;2023-11-18T07:06:32;5.40;99.90
22430;DHT22;11382;48.086;11.632;2023-11-18T07:09:06;5.50;99.90
22430;DHT22;11382;48.086;11.632;2023-11-18T07:11:41;5.50;99.90
22430;DHT22;11382;48.086;11.632;2023-11-18T07:14:09;5.60;99.90
22430;DHT22;11382;48.086;11.632;2023-11-18T07:16:38;5.60;99.90
22430;DHT22;11382;48.086;11.632;2023-11-18T07:19:07;5.70;99.90
22430;DHT22;11382;48.086;11.632;2023-11-18T07:21:37;5.80;99.90
22430;DHT22;11382;48.086;11.632;2023-11-18T07:24:05;5.80;99.90
22430;DHT22;11382;48.086;11.632;2023-11-18T07:26:33;5.90;99.90
22430;DHT22;11382;48.086;11.632;2023-11-18T07:29:03;5.90;99.90
22430;DHT22;11382;48.086;11.632;2023-11-18T07:31:34;6.00;99.90
22430;DHT22;11382;48.086;11.632;2023-11-18T07:34:03;6.00;99.90
22430;DHT22;11382;48.086;11.632;2023-11-18T07:36:32;6.10;99.90
22430;DHT22;11382;48.086;11.632;2023-11-18T07:39:00;6.10;99.90
22430;DHT22;11382;48.086;11.632;2023-11-18T07:41:31;6.10;99.90
22430;DHT22;11382;48.086;11.632;2023-11-18T07:44:00;6.20;99.90
22430;DHT22;11382;48.086;11.632;2023-11-18T07:46:30;6.30;99.90
22430;DHT22;11382;48.086;11.632;2023-11-18T07:48:58;6.30;99.90
22430;DHT22;11382;48.086;11.632;2023-11-18T07:51:28;6.30;99.90
22430;DHT22;11382;48.086;11.632;2023-11-18T07:53:56;6.40;99.90
22430;DHT22;11382;48.086;11.632;2023-11-18T07:56:25;6.40;99.90
22430;DHT22;11382;48.086;11.632;2023-11-18T07:58:55;6.50;99.90
22430;DHT22;11382;48.086;11.632;2023-11-18T08:01:23;6.60;99.90
22430;DHT22;11382;48.086;11.632;2023-11-18T08:03:54;6.80;99.90
22430;DHT22;11382;48.086;11.632;2023-11-18T08:06:22;6.90;99.90
22430;DHT22;11382;48.086;11.632;2023-11-18T08:08:53;7.10;99.90
22430;DHT22;11382;48.086;11.632;2023-11-18T08:11:21;7.10;99.90
22430;DHT22;11382;48.086;11.632;2023-11-18T08:13:50;7.20;99.90
22430;DHT22;11382;48.086;11.632;2023-11-18T08:16:18;7.40;99.90
22430;DHT22;11382;48.086;11.632;2023-11-18T08:18:46;7.40;99.90
22430;DHT22;11382;48.086;11.632;2023-11-18T08:21:15;7.60;99.90
22430;DHT22;11382;48.086;11.632;2023-11-18T08:23:43;7.60;99.90
22430;DHT22;11382;48.086;11.632;2023-11-18T08:26:11;7.80;99.90
22430;DHT22;11382;48.086;11.632;2023-11-18T08:28:40;7.80;99.90
22430;DHT22;11382;48.086;11.632;2023-11-18T08:31:08;8.00;99.90
22430;DHT22;11382;48.086;11.632;2023-11-18T08:33:36;8.10;99.90
22430;DHT22;11382;48.086;11.632;2023-11-18T08:36:05;8.20;99.90
22430;DHT22;11382;48.086;11.632;2023-11-18T08:38:35;8.10;99.90
22430;DHT22;11382;48.086;11.632;2023-11-18T08:41:04;8.20;99.90
22430;DHT22;11382;48.086;11.632;2023-11-18T08:43:35;8.20;99.90
22430;DHT22;11382;48.086;11.632;2023-11-18T08:46:04;8.10;99.90
22430;DHT22;11382;48.086;11.632;2023-11-18T08:48:34;7.90;99.90
22430;DHT22;11382;48.086;11.632;2023-11-18T08:51:02;8.10;99.90
22430;DHT22;11382;48.086;11.632;2023-11-18T08:53:30;8.20;99.90
22430;DHT22;11382;48.086;11.632;2023-11-18T08:56:05;8.30;99.90
22430;DHT22;11382;48.086;11.632;2023-11-18T08:58:33;8.30;99.90
22430;DHT22;11382;48.086;11.632;2023-11-18T09:01:03;8.50;99.90
22430;DHT22;11382;48.086;11.632;2023-11-18T09:03:40;8.40;99.90
22430;DHT22;11382;48.086;11.632;2023-11-18T09:06:15;8.60;99.90
22430;DHT22;11382;48.086;11.632;2023-11-18T09:08:52;8.50;99.90
22430;DHT22;11382;48.086;11.632;2023-11-18T09:11:23;8.50;99.90
22430;DHT22;11382;48.086;11.632;2023-11-18T09:13:54;8.50;99.90
22430;DHT22;11382;48.086;11.632;2023-11-18T09:16:26;8.70;99.90
22430;DHT22;11382;48.086;11.632;2023-11-18T09:18:56;8.70;99.90
22430;DHT22;11382;48.086;11.632;2023-11-18T09:21:26;8.80;99.90
22430;DHT22;11382;48.086;11.632;2023-11-18T09:23:56;8.70;99.90
22430;DHT22;11382;48.086;11.632;2023-11-18T09:26:25;9.00;99.90
22430;DHT22;11382;48.086;11.632;2023-11-18T09:28:57;9.00;99.90
22430;DHT22;11382;48.086;11.632;2023-11-18T09:31:25;8.90;99.90
22430;DHT22;11382;48.086;11.632;2023-11-18T09:33:54;9.40;99.90
22430;DHT22;11382;48.086;11.632;2023-11-18T09:36:24;10.10;99.90
22430;DHT22;11382;48.086;11.632;2023-11-18T09:38:55;10.90;99.90
22430;DHT22;11382;48.086;11.632;2023-11-18T09:41:25;11.80;99.90
22430;DHT22;11382;48.086;11.632;2023-11-18T09:43:55;13.00;99.90
22430;DHT22;11382;48.086;11.632;2023-11-18T09:46:25;14.20;99.90
22430;DHT22;11382;48.086;11.632;2023-11-18T09:49:06;14.40;99.90
22430;DHT22;11382;48.086;11.632;2023-11-18T09:51:44;13.90;99.90
22430;DHT22;11382;48.086;11.632;2023-11-18T09:54:19;13.40;99.90
22430;DHT22;11382;48.086;11.632;2023-11-18T09:57:03;12.40;99.90
22430;DHT22;11382;48.086;11.632;2023-11-18T09:59:42;11.70;99.90
22430;DHT22;11382;48.086;11.632;2023-11-18T10:02:14;11.20;99.90
22430;DHT22;11382;48.086;11.632;2023-11-18T10:04:46;10.90;99.90
22430;DHT22;11382;48.086;11.632;2023-11-18T10:07:18;10.90;99.90
22430;DHT22;11382;48.086;11.632;2023-11-18T10:09:47;10.80;99.90
22430;DHT22;11382;48.086;11.632;2023-11-18T10:12:17;11.20;99.90
22430;DHT22;11382;48.086;11.632;2023-11-18T10:14:50;11.20;99.90
22430;DHT22;11382;48.086;11.632;2023-11-18T10:17:19;11.00;99.90
22430;DHT22;11382;48.086;11.632;2023-11-18T10:19:55;10.50;99.90
22430;DHT22;11382;48.086;11.632;2023-11-18T10:22:25;10.80;99.90
22430;DHT22;11382;48.086;11.632;2023-11-18T10:24:55;11.90;99.90
22430;DHT22;11382;48.086;11.632;2023-11-18T10:27:26;12.60;99.90
22430;DHT22;11382;48.086;11.632;2023-11-18T10:29:58;12.00;99.90
22430;DHT22;11382;48.086;11.632;2023-11-18T10:32:29;12.20;99.90
22430;DHT22;11382;48.086;11.632;2023-11-18T10:35:03;11.60;99.90
22430;DHT22;11382;48.086;11.632;2023-11-18T10:37:33;10.90;99.90
22430;DHT22;11382;48.086;11.632;2023-11-18T10:40:07;11.10;99.90
22430;DHT22;11382;48.086;11.632;2023-11-18T10:42:37;11.40;99.90
22430;DHT22;11382;48.086;11.632;2023-11-18T10:45:06;11.90;99.90
22430;DHT22;11382;48.086;11.632;2023-11-18T10:47:42;11.70;99.90
22430;DHT22;11382;48.086;11.632;2023-11-18T10:50:10;11.60;99.90
22430;DHT22;11382;48.086;11.632;2023-11-18T10:52:39;11.40;99.90
22430;DHT22;11382;48.086;11.632;2023-11-18T10:55:08;10.90;99.90
22430;DHT22;11382;48.086;11.632;2023-11-18T10:57:41;10.90;99.90
22430;DHT22;11382;48.086;11.632;2023-11-18T11:00:11;11.20;99.90
22430;DHT22;11382;48.086;11.632;2023-11-18T11:02:42;11.50;99.90
22430;DHT22;11382;48.086;11.632;2023-11-18T11:05:10;11.70;99.90
22430;DHT22;11382;48.086;11.632;2023-11-18T11:07:48;12.30;99.90
22430;DHT22;11382;48.086;11.632;2023-11-18T11:10:17;13.00;99.90
22430;DHT22;11382;48.086;11.632;2023-11-18T11:12:54;13.40;99.90
22430;DHT22;11382;48.086;11.632;2023-11-18T11:15:28;13.10;99.90
22430;DHT22;11382;48.086;11.632;2023-11-18T11:18:18;12.70;99.90
22430;DHT22;11382;48.086;11.632;2023-11-18T11:20:57;11.80;99.90
22430;DHT22;11382;48.086;11.632;2023-11-18T11:23:35;11.40;99.90
22430;DHT22;11382;48.086;11.632;2023-11-18T11:26:23;11.10;99.90
22430;DHT22;11382;48.086;11.632;2023-11-18T11:29:04;11.20;99.90
22430;DHT22;11382;48.086;11.632;2023-11-18T11:31:38;11.10;99.90
22430;DHT22;11382;48.086;11.632;2023-11-18T11:34:16;10.70;99.90
22430;DHT22;11382;48.086;11.632;2023-11-18T11:36:47;10.70;99.90
22430;DHT22;11382;48.086;11.632;2023-11-18T11:39:18;10.70;99.90
22430;DHT22;11382;48.086;11.632;2023-11-18T11:41:53;10.80;99.90
22430;DHT22;11382;48.086;11.632;2023-11-18T11:44:25;10.80;99.90
22430;DHT22;11382;48.086;11.632;2023-11-18T11:46:58;10.90;99.90
22430;DHT22;11382;48.086;11.632;2023-11-18T11:49:41;11.50;99.90
22430;DHT22;11382;48.086;11.632;2023-11-18T11:52:18;11.80;99.90
22430;DHT22;11382;48.086;11.632;2023-11-18T11:54:54;12.00;99.90
22430;DHT22;11382;48.086;11.632;2023-11-18T11:57:25;11.80;99.90
22430;DHT22;11382;48.086;11.632;2023-11-18T12:00:02;11.70;99.90
22430;DHT22;11382;48.086;11.632;2023-11-18T12:02:48;11.60;99.90
22430;DHT22;11382;48.086;11.632;2023-11-18T12:05:17;11.50;99.90
22430;DHT22;11382;48.086;11.632;2023-11-18T12:07:47;11.10;99.90
22430;DHT22;11382;48.086;11.632;2023-11-18T12:10:15;11.00;99.90
22430;DHT22;11382;48.086;11.632;2023-11-18T12:12:48;10.90;99.90
22430;DHT22;11382;48.086;11.632;2023-11-18T12:18:26;11.00;99.90
22430;DHT22;11382;48.086;11.632;2023-11-18T12:20:54;11.00;99.90
22430;DHT22;11382;48.086;11.632;2023-11-18T12:23:23;10.90;99.90
22430;DHT22;11382;48.086;11.632;2023-11-18T12:25:52;11.00;99.90
22430;DHT22;11382;48.086;11.632;2023-11-18T12:28:25;10.80;99.90
22430;DHT22;11382;48.086;11.632;2023-11-18T12:30:55;10.60;99.90
22430;DHT22;11382;48.086;11.632;2023-11-18T12:34:01;10.60;99.90
22430;DHT22;11382;48.086;11.632;2023-11-18T12:37:01;10.30;99.90
22430;DHT22;11382;48.086;11.632;2023-11-18T12:42:58;10.20;99.90
22430;DHT22;11382;48.086;11.632;2023-11-18T12:48:34;10.30;99.90
22430;DHT22;11382;48.086;11.632;2023-11-18T12:51:08;10.30;99.90
22430;DHT22;11382;48.086;11.632;2023-11-18T12:53:49;10.20;99.90
22430;DHT22;11382;48.086;11.632;2023-11-18T12:56:20;9.90;99.90
22430;DHT22;11382;48.086;11.632;2023-11-18T12:58:50;9.70;99.90
22430;DHT22;11382;48.086;11.632;2023-11-18T13:01:18;9.80;99.90
22430;DHT22;11382;48.086;11.632;2023-11-18T13:03:47;9.90;99.90
22430;DHT22;11382;48.086;11.632;2023-11-18T13:06:16;10.00;99.90
22430;DHT22;11382;48.086;11.632;2023-11-18T13:08:46;10.30;99.90
22430;DHT22;11382;48.086;11.632;2023-11-18T13:11:15;10.40;99.90
22430;DHT22;11382;48.086;11.632;2023-11-18T13:13:44;10.40;99.90
22430;DHT22;11382;48.086;11.632;2023-11-18T13:16:12;10.30;99.90
22430;DHT22;11382;48.086;11.632;2023-11-18T13:18:43;10.10;99.90
22430;DHT22;11382;48.086;11.632;2023-11-18T13:21:14;10.00;99.90
22430;DHT22;11382;48.086;11.632;2023-11-18T13:23:48;9.90;99.90
22430;DHT22;11382;48.086;11.632;2023-11-18T13:26:20;9.70;99.90
22430;DHT22;11382;48.086;11.632;2023-11-18T13:28:48;9.70;99.90
22430;DHT22;11382;48.086;11.632;2023-11-18T13:31:17;9.60;99.90
22430;DHT22;11382;48.086;11.632;2023-11-18T13:33:47;9.50;99.90
22430;DHT22;11382;48.086;11.632;2023-11-18T13:36:15;9.50;99.90
22430;DHT22;11382;48.086;11.632;2023-11-18T13:38:47;9.50;99.90
22430;DHT22;11382;48.086;11.632;2023-11-18T13:41:29;9.40;99.90
22430;DHT22;11382;48.086;11.632;2023-11-18T13:43:58;9.40;99.90
22430;DHT22;11382;48.086;11.632;2023-11-18T13:46:27;9.40;99.90
22430;DHT22;11382;48.086;11.632;2023-11-18T13:48:57;9.30;99.90
22430;DHT22;11382;48.086;11.632;2023-11-18T13:51:26;9.20;99.90
22430;DHT22;11382;48.086;11.632;2023-11-18T13:53:54;9.10;99.90
22430;DHT22;11382;48.086;11.632;2023-11-18T13:56:22;9.10;99.90
22430;DHT22;11382;48.086;11.632;2023-11-18T13:58:55;9.10;99.90
22430;DHT22;11382;48.086;11.632;2023-11-18T14:01:23;9.00;99.90
22430;DHT22;11382;48.086;11.632;2023-11-18T14:03:54;8.90;99.90
22430;DHT22;11382;48.086;11.632;2023-11-18T14:06:28;8.90;99.90
22430;DHT22;11382;48.086;11.632;2023-11-18T14:08:56;9.00;99.90
22430;DHT22;11382;48.086;11.632;2023-11-18T14:11:24;9.10;99.90
22430;DHT22;11382;48.086;11.632;2023-11-18T14:13:52;9.10;99.90
22430;DHT22;11382;48.086;11.632;2023-11-18T14:16:21;9.20;99.90
22430;DHT22;11382;48.086;11.632;2023-11-18T14:18:50;9.30;99.90
22430;DHT22;11382;48.086;11.632;2023-11-18T14:21:18;9.40;99.90
22430;DHT22;11382;48.086;11.632;2023-11-18T14:23:47;9.30;99.90
22430;DHT22;11382;48.086;11.632;2023-11-18T14:26:15;9.40;99.90
22430;DHT22;11382;48.086;11.632;2023-11-18T14:28:43;9.40;99.90
22430;DHT22;11382;48.086;11.632;2023-11-18T14:31:11;9.50;99.90
22430;DHT22;11382;48.086;11.632;2023-11-18T14:33:41;9.40;99.90
22430;DHT22;11382;48.086;11.632;2023-11-18T14:36:09;9.40;99.90
22430;DHT22;11382;48.086;11.632;2023-11-18T14:38:38;9.40;99.90
22430;DHT22;11382;48.086;11.632;2023-11-18T14:41:06;9.30;99.90
22430;DHT22;11382;48.086;11.632;2023-11-18T14:43:34;9.20;99.90
22430;DHT22;11382;48.086;11.632;2023-11-18T14:46:03;9.00;99.90
22430;DHT22;11382;48.086;11.632;2023-11-18T14:48:31;8.90;99.90
22430;DHT22;11382;48.086;11.632;2023-11-18T14:51:01;8.80;99.90
22430;DHT22;11382;48.086;11.632;2023-11-18T14:53:29;8.50;99.90
22430;DHT22;11382;48.086;11.632;2023-11-18T14:55:57;8.20;99.90
22430;DHT22;11382;48.086;11.632;2023-11-18T14:58:25;8.00;99.90
22430;DHT22;11382;48.086;11.632;2023-11-18T15:00:53;7.90;99.90
22430;DHT22;11382;48.086;11.632;2023-11-18T15:03:23;7.80;99.90
22430;DHT22;11382;48.086;11.632;2023-11-18T15:05:51;7.80;99.90
22430;DHT22;11382;48.086;11.632;2023-11-18T15:08:21;7.70;99.90
22430;DHT22;11382;48.086;11.632;2023-11-18T15:10:49;7.60;99.90
22430;DHT22;11382;48.086;11.632;2023-11-18T15:13:17;7.50;99.90
22430;DHT22;11382;48.086;11.632;2023-11-18T15:15:45;7.30;99.90
22430;DHT22;11382;48.086;11.632;2023-11-18T15:18:15;7.30;99.90
22430;DHT22;11382;48.086;11.632;2023-11-18T15:20:45;7.40;99.90
22430;DHT22;11382;48.086;11.632;2023-11-18T15:23:15;7.20;99.90
22430;DHT22;11382;48.086;11.632;2023-11-18T15:25:46;7.30;99.90
22430;DHT22;11382;48.086;11.632;2023-11-18T15:28:14;7.30;99.90
22430;DHT22;11382;48.086;11.632;2023-11-18T15:30:44;7.40;99.90
22430;DHT22;11382;48.086;11.632;2023-11-18T15:33:12;7.30;99.90
22430;DHT22;11382;48.086;11.632;2023-11-18T15:35:42;7.30;99.90
22430;DHT22;11382;48.086;11.632;2023-11-18T15:38:13;7.30;99.90
22430;DHT22;11382;48.086;11.632;2023-11-18T15:40:48;7.30;99.90
22430;DHT22;11382;48.086;11.632;2023-11-18T15:43:16;7.30;99.90
22430;DHT22;11382;48.086;11.632;2023-11-18T15:45:44;7.30;99.90
22430;DHT22;11382;48.086;11.632;2023-11-18T15:48:12;7.20;99.90
22430;DHT22;11382;48.086;11.632;2023-11-18T15:50:41;7.30;99.90
22430;DHT22;11382;48.086;11.632;2023-11-18T15:53:09;7.20;99.90
22430;DHT22;11382;48.086;11.632;2023-11-18T15:55:41;7.20;99.90